Time;durP1;ratioP1;P1;durP2;ratioP2;P2;SDS_P1;SDS_P2;PMS_P1;PMS_P2;Temp;Humidity;BMP_temperature;BMP_pressure;BME280_temperature;BME280_humidity;BME280_pressure;Samples;Min_cycle;Max_cycle;Signal;HPM_P1;HPM_P2
2023/08/09 00:01:30;;;;;;;72.72;68.65;;;21.10;99.90;;;;;;4995894;28;20030;-74
2023/08/09 00:03:56;;;;;;;87.95;83.30;;;21.10;99.90;;;;;;5013108;28;20033;-74
2023/08/09 00:06:22;;;;;;;47.22;44.10;;;21.00;99.90;;;;;;5012646;28;20026;-74
2023/08/09 00:08:48;;;;;;;93.57;88.75;;;21.00;99.90;;;;;;5014008;28;20042;-74
2023/08/09 00:11:14;;;;;;;52.78;49.80;;;20.90;99.90;;;;;;5012665;28;20033;-74
2023/08/09 00:13:40;;;;;;;50.60;47.78;;;21.00;99.90;;;;;;5013604;28;20033;-74
2023/08/09 00:16:06;;;;;;;33.30;31.40;;;20.90;99.90;;;;;;5013050;28;20030;-74
2023/08/09 00:18:33;;;;;;;110.20;104.28;;;20.80;99.90;;;;;;5013816;28;20045;-74
2023/08/09 00:21:00;;;;;;;141.60;134.35;;;20.80;99.90;;;;;;5012446;28;20034;-74
2023/08/09 00:23:26;;;;;;;25.35;23.55;;;20.70;99.90;;;;;;5013741;28;20026;-74
2023/08/09 00:25:52;;;;;;;21.67;20.45;;;20.70;99.90;;;;;;5013690;28;20037;-75
2023/08/09 00:28:18;;;;;;;146.10;138.55;;;20.70;99.90;;;;;;5012284;28;20033;-74
2023/08/09 00:30:44;;;;;;;225.00;213.68;;;20.60;99.90;;;;;;4995528;28;20030;-74
2023/08/09 00:33:10;;;;;;;116.68;110.35;;;20.60;99.90;;;;;;5013698;28;20029;-74
2023/08/09 00:35:36;;;;;;;103.00;97.45;;;20.70;99.90;;;;;;5012254;28;20049;-74
2023/08/09 00:38:03;;;;;;;128.45;121.78;;;20.60;99.90;;;;;;5012161;28;20053;-74
2023/08/09 00:40:29;;;;;;;128.93;122.25;;;20.60;99.90;;;;;;5012219;28;20034;-74
2023/08/09 00:42:55;;;;;;;35.30;32.95;;;20.60;99.90;;;;;;5013100;28;20514;-74
2023/08/09 00:45:21;;;;;;;104.72;99.07;;;20.60;99.90;;;;;;5012521;28;20030;-74
2023/08/09 00:47:48;;;;;;;97.88;92.60;;;20.60;99.90;;;;;;5013412;28;20022;-74
2023/08/09 00:50:14;;;;;;;162.77;154.45;;;20.60;99.90;;;;;;5011704;28;20038;-75
2023/08/09 00:52:40;;;;;;;149.98;142.38;;;20.70;99.90;;;;;;5013280;28;20030;-74
2023/08/09 00:55:06;;;;;;;183.05;173.40;;;20.60;99.90;;;;;;5011414;28;20034;-74
2023/08/09 00:57:32;;;;;;;166.20;157.07;;;20.60;99.90;;;;;;5007604;28;20042;-74
2023/08/09 00:59:58;;;;;;;80.40;75.78;;;20.50;99.90;;;;;;4992320;28;20049;-74
2023/08/09 01:02:24;;;;;;;63.95;60.38;;;20.50;99.90;;;;;;5010073;28;20041;-74
2023/08/09 01:04:51;;;;;;;49.40;46.53;;;20.50;99.90;;;;;;5013018;28;20467;-74
2023/08/09 01:07:22;;;;;;;37.20;34.90;;;20.50;99.90;;;;;;5011719;28;20026;-73
2023/08/09 01:10:14;;;;;;;39.17;36.75;;;20.40;99.90;;;;;;4995624;28;20505;-74
2023/08/09 01:12:42;;;;;;;51.63;48.65;;;20.40;99.90;;;;;;5011499;28;20041;-74
2023/08/09 01:15:12;;;;;;;43.28;40.92;;;20.40;99.90;;;;;;5011422;28;20030;-74
2023/08/09 01:17:38;;;;;;;34.72;32.65;;;20.40;99.90;;;;;;4972291;28;20396;-74
2023/08/09 01:20:04;;;;;;;28.90;27.15;;;20.30;99.90;;;;;;4975904;28;20038;-74
2023/08/09 01:22:33;;;;;;;26.67;24.70;;;20.30;99.90;;;;;;4994868;28;20030;-74
2023/08/09 01:25:03;;;;;;;23.83;22.00;;;20.30;99.90;;;;;;5011592;28;20026;-75
2023/08/09 01:27:30;;;;;;;31.00;28.93;;;20.20;99.90;;;;;;5011119;28;20029;-74
2023/08/09 01:29:56;;;;;;;21.98;20.45;;;20.20;99.90;;;;;;5012673;28;20029;-74
2023/08/09 01:32:25;;;;;;;24.55;22.92;;;20.20;99.90;;;;;;5012044;28;20407;-74
2023/08/09 01:34:51;;;;;;;21.70;20.17;;;20.20;99.90;;;;;;5011495;28;20073;-74
2023/08/09 01:37:34;;;;;;;18.63;17.35;;;20.20;99.90;;;;;;5011268;28;20042;-73
2023/08/09 01:40:07;;;;;;;20.45;19.15;;;20.10;99.90;;;;;;5011241;28;20030;-75
2023/08/09 01:42:34;;;;;;;29.88;27.83;;;20.10;99.90;;;;;;5011254;28;20025;-74
2023/08/09 01:45:02;;;;;;;29.85;27.88;;;20.10;99.90;;;;;;5011366;28;20026;-75
2023/08/09 01:47:29;;;;;;;35.75;33.67;;;20.10;99.90;;;;;;4994348;28;20042;-74
2023/08/09 01:49:55;;;;;;;22.08;20.77;;;20.00;99.90;;;;;;5011297;28;20038;-74
2023/08/09 01:52:21;;;;;;;36.53;34.10;;;20.10;99.90;;;;;;5012128;28;20053;-74
2023/08/09 01:54:47;;;;;;;27.92;25.83;;;20.00;99.90;;;;;;5010965;28;20041;-74
2023/08/09 01:57:14;;;;;;;52.70;49.60;;;20.00;99.90;;;;;;5011732;28;20034;-74
2023/08/09 01:59:41;;;;;;;34.13;31.73;;;20.00;99.90;;;;;;5008425;28;20060;-74
2023/08/09 02:02:07;;;;;;;31.15;29.17;;;19.90;99.90;;;;;;5000868;28;20034;-74
2023/08/09 02:04:33;;;;;;;22.02;20.70;;;19.90;99.90;;;;;;5009342;28;20030;-75
2023/08/09 02:07:00;;;;;;;20.60;19.10;;;19.90;99.90;;;;;;5012139;28;20121;-74
2023/08/09 02:09:26;;;;;;;18.90;17.70;;;19.90;99.90;;;;;;5013488;28;20033;-74
2023/08/09 02:11:53;;;;;;;19.60;18.00;;;19.80;99.90;;;;;;5014967;28;20029;-74
2023/08/09 02:14:19;;;;;;;19.30;17.92;;;19.80;99.90;;;;;;5014882;28;20049;-74
2023/08/09 02:16:46;;;;;;;21.85;20.38;;;19.80;99.90;;;;;;5014171;28;20034;-74
2023/08/09 02:19:12;;;;;;;26.42;24.83;;;19.80;99.90;;;;;;5013832;28;20040;-74
2023/08/09 02:21:39;;;;;;;24.77;23.15;;;19.70;99.90;;;;;;5014572;28;20037;-75
2023/08/09 02:24:06;;;;;;;29.63;27.80;;;19.60;99.90;;;;;;5013294;28;20368;-74
2023/08/09 02:26:33;;;;;;;19.55;18.05;;;19.50;99.90;;;;;;5013279;28;20034;-74
2023/08/09 02:29:00;;;;;;;20.42;19.02;;;19.60;99.90;;;;;;5014632;28;20040;-74
2023/08/09 02:31:27;;;;;;;22.90;21.40;;;19.60;99.90;;;;;;5014002;28;20486;-74
2023/08/09 02:33:55;;;;;;;20.88;19.42;;;19.60;99.90;;;;;;5015120;28;20068;-74
2023/08/09 02:36:22;;;;;;;19.67;18.27;;;19.60;99.90;;;;;;5014597;28;20041;-74
2023/08/09 02:38:48;;;;;;;19.33;17.75;;;19.60;99.90;;;;;;5015410;28;20053;-74
2023/08/09 02:41:14;;;;;;;17.90;16.65;;;19.60;99.90;;;;;;5014319;28;20029;-75
2023/08/09 02:43:40;;;;;;;19.38;18.00;;;19.60;99.90;;;;;;5015609;28;20034;-74
2023/08/09 02:46:06;;;;;;;29.77;27.83;;;19.50;99.90;;;;;;5014836;28;20043;-74
2023/08/09 02:48:32;;;;;;;36.05;34.00;;;19.50;99.90;;;;;;5015677;28;20030;-75
2023/08/09 02:50:58;;;;;;;46.28;43.60;;;19.50;99.90;;;;;;5013851;28;20076;-74
2023/08/09 02:53:33;;;;;;;31.00;28.70;;;19.40;99.90;;;;;;5013789;28;20483;-74
2023/08/09 02:55:59;;;;;;;17.98;16.77;;;19.40;99.90;;;;;;5013997;28;20094;-74
2023/08/09 02:58:26;;;;;;;21.90;20.38;;;19.40;99.90;;;;;;5015433;28;20029;-74
2023/08/09 03:00:52;;;;;;;23.55;21.77;;;19.40;99.90;;;;;;5014650;28;20060;-74
2023/08/09 03:03:18;;;;;;;18.15;16.90;;;19.40;99.90;;;;;;5013400;28;20026;-73
2023/08/09 03:05:44;;;;;;;20.55;19.20;;;19.40;99.90;;;;;;5014806;28;20045;-74
2023/08/09 03:08:10;;;;;;;21.75;20.27;;;19.40;99.90;;;;;;5014943;28;20022;-74
2023/08/09 03:10:36;;;;;;;19.75;18.45;;;19.30;99.90;;;;;;5014961;28;20032;-75
2023/08/09 03:13:03;;;;;;;19.00;17.52;;;19.30;99.90;;;;;;4997437;28;20041;-74
2023/08/09 03:15:29;;;;;;;18.08;16.80;;;19.30;99.90;;;;;;5014341;28;20360;-74
2023/08/09 03:17:55;;;;;;;18.38;16.98;;;19.30;99.90;;;;;;5014606;28;20030;-74
2023/08/09 03:20:22;;;;;;;31.50;29.70;;;19.30;99.90;;;;;;4996672;28;20037;-75
2023/08/09 03:22:48;;;;;;;29.60;27.42;;;19.20;99.90;;;;;;5013036;28;20042;-75
2023/08/09 03:25:14;;;;;;;35.47;33.13;;;19.10;99.90;;;;;;5014752;28;20383;-75
2023/08/09 03:27:41;;;;;;;31.05;28.95;;;19.10;99.90;;;;;;5014897;28;20459;-74
2023/08/09 03:30:08;;;;;;;42.42;39.45;;;19.00;99.90;;;;;;4997017;28;20041;-74
2023/08/09 03:32:35;;;;;;;45.97;43.08;;;18.90;99.90;;;;;;4994181;28;20384;-74
2023/08/09 03:35:02;;;;;;;56.70;53.47;;;18.90;99.90;;;;;;5010239;28;20034;-75
2023/08/09 03:37:28;;;;;;;52.63;49.58;;;18.90;99.90;;;;;;5012425;28;20487;-74
2023/08/09 03:39:54;;;;;;;42.20;39.60;;;18.90;99.90;;;;;;5014720;28;20038;-74
2023/08/09 03:42:21;;;;;;;30.90;28.88;;;18.90;99.90;;;;;;5014328;28;20041;-74
2023/08/09 03:44:47;;;;;;;27.88;25.95;;;18.90;99.90;;;;;;5014458;28;20498;-74
2023/08/09 03:47:13;;;;;;;30.27;28.08;;;18.90;99.90;;;;;;5013846;28;20479;-75
2023/08/09 03:49:39;;;;;;;39.13;36.58;;;18.90;99.90;;;;;;5014411;28;20041;-75
2023/08/09 03:52:06;;;;;;;32.53;30.45;;;18.80;99.90;;;;;;5013665;28;20045;-74
2023/08/09 03:54:32;;;;;;;41.22;38.55;;;18.80;99.90;;;;;;4997159;28;20041;-74
2023/08/09 03:56:58;;;;;;;48.00;45.33;;;18.80;99.90;;;;;;5014160;28;20368;-74
2023/08/09 03:59:24;;;;;;;42.53;39.97;;;18.70;99.90;;;;;;5014198;28;20033;-74
2023/08/09 04:01:50;;;;;;;38.53;35.97;;;18.70;99.90;;;;;;5013499;28;20061;-74
2023/08/09 04:04:17;;;;;;;32.67;30.42;;;18.70;99.90;;;;;;5014268;28;20026;-74
2023/08/09 04:06:43;;;;;;;28.38;26.48;;;18.80;99.90;;;;;;5013652;28;20029;-74
2023/08/09 04:09:10;;;;;;;30.23;27.75;;;18.80;99.90;;;;;;5014300;28;20032;-74
2023/08/09 04:11:36;;;;;;;22.30;20.77;;;18.80;99.90;;;;;;5012327;28;20042;-74
2023/08/09 04:14:02;;;;;;;22.95;21.35;;;18.80;99.90;;;;;;5014019;28;20490;-74
2023/08/09 04:16:28;;;;;;;24.13;22.52;;;18.80;99.90;;;;;;5013154;28;20046;-74
2023/08/09 04:18:54;;;;;;;24.85;23.05;;;18.80;99.90;;;;;;5013963;28;20040;-74
2023/08/09 04:21:20;;;;;;;23.90;22.30;;;18.80;99.90;;;;;;5013415;28;20034;-74
2023/08/09 04:23:47;;;;;;;35.80;33.58;;;18.70;99.90;;;;;;5012721;28;20026;-74
2023/08/09 04:26:13;;;;;;;43.35;40.60;;;18.70;99.90;;;;;;5013555;28;20033;-74
2023/08/09 04:28:39;;;;;;;26.02;23.85;;;18.70;99.90;;;;;;5013705;28;20391;-74
2023/08/09 04:31:05;;;;;;;23.23;21.63;;;18.70;99.90;;;;;;5011071;28;20034;-74
2023/08/09 04:33:31;;;;;;;21.65;20.05;;;18.70;99.90;;;;;;5013666;28;20459;-74
2023/08/09 04:35:58;;;;;;;21.52;19.75;;;18.70;99.90;;;;;;5013006;28;20040;-74
2023/08/09 04:38:24;;;;;;;24.55;22.80;;;18.60;99.90;;;;;;5012365;28;20041;-74
2023/08/09 04:40:50;;;;;;;25.50;23.70;;;18.60;99.90;;;;;;5013390;28;20026;-74
2023/08/09 04:43:17;;;;;;;28.38;26.50;;;18.60;99.90;;;;;;5012244;28;20029;-74
2023/08/09 04:45:43;;;;;;;28.48;26.40;;;18.60;99.90;;;;;;5012790;28;20030;-74
2023/08/09 04:48:19;;;;;;;26.05;24.25;;;18.60;99.90;;;;;;5012221;28;20045;-74
2023/08/09 04:50:45;;;;;;;36.97;34.70;;;18.50;99.90;;;;;;5013035;28;20057;-74
2023/08/09 04:53:20;;;;;;;68.90;65.28;;;18.50;99.90;;;;;;5069359;28;20476;-73
2023/08/09 04:55:46;;;;;;;46.95;43.92;;;18.40;99.90;;;;;;5069376;28;20032;-73
2023/08/09 04:58:12;;;;;;;25.95;24.25;;;18.30;99.90;;;;;;5051805;28;20028;-73
2023/08/09 05:00:38;;;;;;;33.95;31.75;;;18.40;99.90;;;;;;5046036;28;20040;-73
2023/08/09 05:03:05;;;;;;;28.75;27.00;;;18.30;99.90;;;;;;5047685;28;20037;-73
2023/08/09 05:05:31;;;;;;;28.80;26.90;;;18.30;99.90;;;;;;5049114;28;20046;-73
2023/08/09 05:07:57;;;;;;;41.45;38.92;;;18.30;99.90;;;;;;5048278;28;20025;-73
2023/08/09 05:10:23;;;;;;;56.22;53.20;;;18.30;99.90;;;;;;5049018;28;20025;-74
2023/08/09 05:12:49;;;;;;;54.85;51.55;;;18.30;99.90;;;;;;5049044;28;20471;-73
2023/08/09 05:15:15;;;;;;;49.50;46.63;;;18.30;99.90;;;;;;5047371;28;20036;-73
2023/08/09 05:17:41;;;;;;;35.20;32.75;;;18.30;99.90;;;;;;5048708;28;20032;-74
2023/08/09 05:20:08;;;;;;;23.20;21.50;;;18.40;99.90;;;;;;5049139;28;20040;-73
2023/08/09 05:22:34;;;;;;;31.40;28.80;;;18.40;99.90;;;;;;5048861;28;20033;-73
2023/08/09 05:25:00;;;;;;;54.35;51.20;;;18.40;99.90;;;;;;5049016;28;20470;-73
2023/08/09 05:27:27;;;;;;;62.50;59.10;;;18.30;99.90;;;;;;5048677;28;20033;-73
2023/08/09 05:29:53;;;;;;;60.92;57.40;;;18.30;99.90;;;;;;5049124;28;20029;-73
2023/08/09 05:32:23;;;;;;;28.80;27.02;;;18.30;99.90;;;;;;5046639;28;20492;-73
2023/08/09 05:34:49;;;;;;;49.78;46.58;;;18.40;99.90;;;;;;5047731;28;20044;-73
2023/08/09 05:37:15;;;;;;;19.75;18.30;;;18.60;99.90;;;;;;5047530;28;20033;-73
2023/08/09 05:39:41;;;;;;;22.10;20.60;;;18.70;99.90;;;;;;5047516;28;20040;-75
2023/08/09 05:42:07;;;;;;;16.00;14.63;;;18.90;99.90;;;;;;5047306;28;20033;-73
2023/08/09 05:44:34;;;;;;;17.40;15.93;;;19.20;99.90;;;;;;5048797;28;20029;-73
2023/08/09 05:47:01;;;;;;;19.00;17.60;;;19.30;99.90;;;;;;5046301;28;20144;-73
2023/08/09 05:49:27;;;;;;;21.40;19.77;;;19.40;99.90;;;;;;5047513;28;20389;-73
2023/08/09 05:51:56;;;;;;;37.50;35.20;;;19.50;99.90;;;;;;5046983;28;20037;-73
2023/08/09 05:54:22;;;;;;;36.45;33.95;;;19.70;99.90;;;;;;5047415;28;20025;-73
2023/08/09 05:56:48;;;;;;;29.90;27.98;;;19.90;99.90;;;;;;5046525;28;20064;-73
2023/08/09 05:59:14;;;;;;;43.13;40.50;;;20.00;99.90;;;;;;5048575;28;20036;-75
2023/08/09 06:01:40;;;;;;;62.88;59.33;;;20.20;99.90;;;;;;5046021;28;20509;-75
2023/08/09 06:04:07;;;;;;;35.35;33.17;;;20.40;99.90;;;;;;5038219;28;20025;-75
2023/08/09 06:06:33;;;;;;;34.17;32.15;;;20.60;99.90;;;;;;5034842;28;20371;-76
2023/08/09 06:08:59;;;;;;;46.80;44.00;;;20.70;99.90;;;;;;5033829;28;20116;-76
2023/08/09 06:11:26;;;;;;;50.03;46.65;;;20.90;99.90;;;;;;5033290;28;20037;-73
2023/08/09 06:13:52;;;;;;;41.67;39.15;;;20.90;99.90;;;;;;5033815;28;20033;-73
2023/08/09 06:16:18;;;;;;;59.30;55.78;;;20.90;99.90;;;;;;5032543;28;20486;-73
2023/08/09 06:18:44;;;;;;;40.30;37.95;;;20.90;99.90;;;;;;5034655;28;20064;-73
2023/08/09 06:21:10;;;;;;;40.70;38.15;;;21.00;99.90;;;;;;5034432;28;20045;-73
2023/08/09 06:23:36;;;;;;;38.13;35.72;;;21.00;99.90;;;;;;5016814;28;20041;-73
2023/08/09 06:26:03;;;;;;;35.83;33.63;;;21.20;99.90;;;;;;5034362;28;20029;-73
2023/08/09 06:28:29;;;;;;;43.42;40.72;;;21.30;99.90;;;;;;5034739;28;20036;-73
2023/08/09 06:30:55;;;;;;;49.92;47.13;;;21.40;99.90;;;;;;5032367;28;20471;-73
2023/08/09 06:33:21;;;;;;;53.38;50.28;;;21.60;99.90;;;;;;5033311;28;20037;-73
2023/08/09 06:35:47;;;;;;;57.45;54.45;;;21.70;99.90;;;;;;5034221;28;20029;-76
2023/08/09 06:38:13;;;;;;;80.32;76.22;;;21.90;99.90;;;;;;5034478;28;20032;-74
2023/08/09 06:40:39;;;;;;;84.93;80.63;;;22.00;99.90;;;;;;5034290;28;20022;-73
2023/08/09 06:43:05;;;;;;;74.05;70.20;;;22.20;99.90;;;;;;5034383;28;20040;-74
2023/08/09 06:45:33;;;;;;;120.10;114.13;;;22.30;99.90;;;;;;5033252;28;20041;-74
2023/08/09 06:47:59;;;;;;;86.32;81.70;;;22.50;99.90;;;;;;5034246;28;20032;-74
2023/08/09 06:50:27;;;;;;;183.70;174.75;;;22.50;99.90;;;;;;5032729;28;20030;-75
2023/08/09 06:52:53;;;;;;;106.60;101.32;;;22.70;99.90;;;;;;5022225;28;20045;-74
2023/08/09 06:55:19;;;;;;;109.22;103.78;;;22.80;99.90;;;;;;5014201;28;20034;-74
2023/08/09 06:57:45;;;;;;;79.65;75.35;;;22.90;99.90;;;;;;5033123;28;20029;-75
2023/08/09 07:00:16;;;;;;;87.13;82.63;;;23.10;99.90;;;;;;5033369;28;20040;-74
2023/08/09 07:02:46;;;;;;;117.43;111.50;;;23.10;99.90;;;;;;5034023;28;20033;-74
2023/08/09 07:05:18;;;;;;;88.85;84.28;;;23.20;99.90;;;;;;5032722;28;20101;-74
2023/08/09 07:07:45;;;;;;;82.80;78.55;;;23.40;99.90;;;;;;5033941;28;20390;-75
2023/08/09 07:10:12;;;;;;;79.70;75.60;;;23.60;99.90;;;;;;5033566;28;20025;-74
2023/08/09 07:12:38;;;;;;;87.72;83.25;;;23.70;99.90;;;;;;5033594;28;20036;-74
2023/08/09 07:15:08;;;;;;;89.43;84.95;;;23.70;99.90;;;;;;5030903;28;20022;-74
2023/08/09 07:17:35;;;;;;;98.10;93.18;;;23.80;99.90;;;;;;5033198;28;20029;-74
2023/08/09 07:20:05;;;;;;;147.18;139.88;;;24.00;99.90;;;;;;5032524;28;20032;-74
2023/08/09 07:22:31;;;;;;;120.95;115.05;;;24.10;99.90;;;;;;5033530;28;20041;-74
2023/08/09 07:24:57;;;;;;;197.88;188.23;;;23.90;99.90;;;;;;5032484;28;20052;-74
2023/08/09 07:27:23;;;;;;;123.40;117.25;;;23.60;99.90;;;;;;5033204;28;20030;-74
2023/08/09 07:29:49;;;;;;;104.45;99.13;;;23.70;99.90;;;;;;5031977;28;20048;-74
2023/08/09 07:32:15;;;;;;;81.47;77.40;;;23.80;99.90;;;;;;5031329;28;20052;-74
2023/08/09 07:34:41;;;;;;;99.68;94.65;;;24.00;99.90;;;;;;5033376;28;20037;-74
2023/08/09 07:37:07;;;;;;;94.88;89.97;;;23.80;99.90;;;;;;5033245;28;20479;-74
2023/08/09 07:39:34;;;;;;;92.85;88.20;;;24.00;99.90;;;;;;5032060;28;20041;-74
2023/08/09 07:42:01;;;;;;;124.50;118.30;;;23.90;99.90;;;;;;5033132;28;20068;-74
2023/08/09 07:44:27;;;;;;;170.10;161.77;;;23.80;99.90;;;;;;5031766;28;20040;-74
2023/08/09 07:46:53;;;;;;;301.55;286.73;;;24.00;99.90;;;;;;5031274;28;20041;-75
2023/08/09 07:49:19;;;;;;;288.85;274.52;;;24.00;99.90;;;;;;5033034;28;20021;-74
2023/08/09 07:51:45;;;;;;;115.28;109.50;;;24.30;99.90;;;;;;5032549;28;20061;-75
2023/08/09 07:54:12;;;;;;;102.13;96.90;;;24.00;99.90;;;;;;5017428;28;20518;-74
2023/08/09 07:56:38;;;;;;;214.00;203.70;;;24.20;99.90;;;;;;5023599;28;20041;-73
2023/08/09 07:59:04;;;;;;;221.50;211.00;;;23.90;99.90;;;;;;5031525;28;20022;-74
2023/08/09 08:01:32;;;;;;;101.97;96.78;;;23.90;99.90;;;;;;5032032;28;20428;-74
2023/08/09 08:03:58;;;;;;;138.52;131.73;;;24.00;99.90;;;;;;5031480;28;20037;-73
2023/08/09 08:06:24;;;;;;;168.38;159.90;;;23.90;99.90;;;;;;5032682;28;20061;-74
2023/08/09 08:08:51;;;;;;;204.18;194.57;;;24.20;99.90;;;;;;5032684;28;20497;-74
2023/08/09 08:11:17;;;;;;;161.13;153.20;;;24.40;99.90;;;;;;5030969;28;20052;-73
2023/08/09 08:13:43;;;;;;;177.55;169.07;;;24.40;99.90;;;;;;5032509;28;20386;-74
2023/08/09 08:16:09;;;;;;;240.63;229.23;;;24.30;99.90;;;;;;5031928;28;20038;-74
2023/08/09 08:18:35;;;;;;;232.95;221.85;;;24.60;99.90;;;;;;5031460;28;20037;-74
2023/08/09 08:21:03;;;;;;;262.35;249.70;;;24.70;99.90;;;;;;5032305;28;20029;-74
2023/08/09 08:23:32;;;;;;;268.20;255.07;;;24.70;99.90;;;;;;5031268;28;20108;-74
2023/08/09 08:25:58;;;;;;;287.48;273.45;;;24.60;99.90;;;;;;5030414;28;20025;-73
2023/08/09 08:28:24;;;;;;;327.38;311.25;;;24.60;99.90;;;;;;5031228;28;20048;-74
2023/08/09 08:30:50;;;;;;;247.75;235.88;;;24.70;99.90;;;;;;5031570;28;20509;-74
2023/08/09 08:33:17;;;;;;;282.23;268.70;;;24.80;99.90;;;;;;5032501;28;20041;-74
2023/08/09 08:35:48;;;;;;;209.95;199.90;;;24.90;99.90;;;;;;5031988;28;20021;-74
2023/08/09 08:38:15;;;;;;;275.63;262.52;;;24.90;99.90;;;;;;5031304;28;20021;-73
2023/08/09 08:40:43;;;;;;;307.73;292.75;;;24.80;99.90;;;;;;5031837;28;20018;-73
2023/08/09 08:43:09;;;;;;;304.42;289.83;;;24.70;99.90;;;;;;5031155;28;20382;-74
2023/08/09 08:45:38;;;;;;;320.17;304.60;;;24.60;99.90;;;;;;5030297;28;20034;-74
2023/08/09 08:48:06;;;;;;;352.73;335.00;;;24.70;99.90;;;;;;5032205;28;20026;-74
2023/08/09 08:50:33;;;;;;;290.70;276.85;;;24.60;99.90;;;;;;5030824;28;20029;-75
2023/08/09 08:52:59;;;;;;;214.77;204.52;;;24.70;99.90;;;;;;5030581;28;20046;-74
2023/08/09 08:55:25;;;;;;;253.40;241.15;;;24.90;99.90;;;;;;5030349;28;20040;-74
2023/08/09 08:57:52;;;;;;;147.05;139.90;;;24.80;99.90;;;;;;5032252;28;20049;-74
2023/08/09 09:00:20;;;;;;;149.82;142.65;;;24.80;99.90;;;;;;5030094;28;20018;-74
2023/08/09 09:02:47;;;;;;;125.50;119.50;;;24.90;99.90;;;;;;5031916;28;20040;-74
2023/08/09 09:05:13;;;;;;;197.35;187.88;;;24.80;99.90;;;;;;5030653;28;20036;-74
2023/08/09 09:07:40;;;;;;;119.40;113.63;;;24.90;99.90;;;;;;5030796;28;20521;-74
2023/08/09 09:10:09;;;;;;;170.30;162.00;;;25.30;99.90;;;;;;5031626;28;20025;-74
2023/08/09 09:12:38;;;;;;;171.00;162.55;;;25.40;99.90;;;;;;5031280;28;20058;-74
2023/08/09 09:15:05;;;;;;;283.90;270.38;;;25.20;99.90;;;;;;5031533;28;20028;-74
2023/08/09 09:17:38;;;;;;;143.35;136.35;;;25.20;99.90;;;;;;5031233;28;20042;-74
2023/08/09 09:20:13;;;;;;;157.15;149.48;;;25.40;99.90;;;;;;5031958;28;20032;-73
2023/08/09 09:22:39;;;;;;;136.27;129.75;;;25.30;99.90;;;;;;5030951;28;20045;-73
2023/08/09 09:25:11;;;;;;;134.45;127.88;;;25.40;99.90;;;;;;5030429;28;20028;-74
2023/08/09 09:27:38;;;;;;;140.73;133.80;;;25.60;99.90;;;;;;5030318;28;20037;-75
2023/08/09 09:30:12;;;;;;;138.35;131.65;;;26.10;99.90;;;;;;5031328;28;20025;-74
2023/08/09 09:32:56;;;;;;;143.73;136.77;;;26.40;99.90;;;;;;5031733;28;20038;-74
2023/08/09 09:35:25;;;;;;;178.75;170.18;;;26.50;99.90;;;;;;5030401;28;20040;-74
2023/08/09 09:37:52;;;;;;;257.58;245.38;;;26.60;99.90;;;;;;5030761;28;20053;-74
2023/08/09 09:40:32;;;;;;;133.35;126.97;;;26.30;99.90;;;;;;5034891;28;20098;-74
2023/08/09 09:42:59;;;;;;;305.00;290.10;;;26.00;99.90;;;;;;5034130;28;20037;-74
2023/08/09 09:45:26;;;;;;;237.80;226.40;;;25.90;99.90;;;;;;5034813;28;20706;-74
2023/08/09 09:47:53;;;;;;;185.02;176.20;;;25.90;99.90;;;;;;5035520;28;20033;-74
2023/08/09 09:50:21;;;;;;;247.27;235.57;;;26.00;99.90;;;;;;5033711;28;20040;-74
2023/08/09 09:52:47;;;;;;;186.93;178.13;;;26.10;99.90;;;;;;5033592;28;20050;-74
2023/08/09 09:55:15;;;;;;;140.43;133.68;;;26.20;99.90;;;;;;5033689;28;20089;-74
2023/08/09 09:57:41;;;;;;;172.68;164.30;;;26.30;99.90;;;;;;5035276;28;20390;-74
2023/08/09 10:00:10;;;;;;;160.88;153.10;;;26.20;99.90;;;;;;5033519;28;20375;-73
2023/08/09 10:02:47;;;;;;;151.40;144.02;;;26.20;99.90;;;;;;5030246;28;20419;-75
2023/08/09 10:05:35;;;;;;;277.75;264.38;;;26.20;99.90;;;;;;5015505;28;20467;-75
2023/08/09 10:08:04;;;;;;;253.70;241.57;;;26.20;99.90;;;;;;5033711;28;20502;-74
2023/08/09 10:10:31;;;;;;;232.77;221.75;;;26.10;99.90;;;;;;5033566;28;20032;-74
2023/08/09 10:12:57;;;;;;;239.75;228.27;;;26.20;99.90;;;;;;5033535;28;20041;-74
2023/08/09 10:15:28;;;;;;;255.15;243.07;;;26.30;99.90;;;;;;5033002;28;20045;-74
2023/08/09 10:18:10;;;;;;;278.75;265.40;;;26.30;99.90;;;;;;5033746;28;20386;-75
2023/08/09 10:20:38;;;;;;;310.48;295.27;;;26.40;99.90;;;;;;5033210;28;20028;-75
2023/08/09 10:23:04;;;;;;;297.77;283.45;;;26.40;99.90;;;;;;5033221;28;20044;-74
2023/08/09 10:25:46;;;;;;;271.90;258.92;;;26.50;99.90;;;;;;5034241;28;20033;-74
2023/08/09 10:28:12;;;;;;;271.40;258.30;;;26.30;99.90;;;;;;5034523;28;20036;-75
2023/08/09 10:30:57;;;;;;;250.07;238.20;;;26.00;99.90;;;;;;5032846;28;20028;-73
2023/08/09 10:33:23;;;;;;;209.88;199.82;;;26.00;99.90;;;;;;5034517;28;20034;-74
2023/08/09 10:35:51;;;;;;;230.57;219.68;;;25.90;99.90;;;;;;5033114;28;20018;-75
2023/08/09 10:38:19;;;;;;;211.93;201.98;;;26.00;99.90;;;;;;5032909;28;20038;-75
2023/08/09 10:40:52;;;;;;;162.93;155.18;;;25.90;99.90;;;;;;5033035;28;20029;-74
2023/08/09 10:43:23;;;;;;;219.02;208.63;;;25.80;99.90;;;;;;5034544;28;20040;-75
2023/08/09 10:45:49;;;;;;;154.27;146.90;;;25.90;99.90;;;;;;5033594;28;20025;-75
2023/08/09 10:48:20;;;;;;;123.32;117.40;;;26.10;99.90;;;;;;5032401;28;20044;-75
2023/08/09 10:50:46;;;;;;;152.68;145.48;;;26.30;99.90;;;;;;5033452;28;20019;-75
2023/08/09 10:53:12;;;;;;;166.77;158.85;;;26.20;99.90;;;;;;5034066;28;20046;-75
2023/08/09 10:55:38;;;;;;;194.30;185.13;;;26.10;99.90;;;;;;5032451;28;20057;-75
2023/08/09 10:58:04;;;;;;;206.02;196.38;;;26.00;99.90;;;;;;5032762;28;20030;-75
2023/08/09 11:00:38;;;;;;;209.65;199.75;;;26.00;99.90;;;;;;5033393;28;20041;-75
2023/08/09 11:03:04;;;;;;;194.52;185.35;;;26.20;99.90;;;;;;5016500;28;20048;-75
2023/08/09 11:05:30;;;;;;;239.35;227.98;;;26.40;99.90;;;;;;5032287;28;20037;-75
2023/08/09 11:07:57;;;;;;;221.02;210.60;;;26.60;99.90;;;;;;5032775;28;20033;-75
2023/08/09 11:10:30;;;;;;;218.25;207.98;;;26.90;99.90;;;;;;5032430;28;20022;-76
2023/08/09 11:12:56;;;;;;;174.23;165.90;;;27.00;99.90;;;;;;5033574;28;20036;-75
2023/08/09 11:15:22;;;;;;;178.65;170.15;;;27.30;99.90;;;;;;5033098;28;20033;-74
2023/08/09 11:17:51;;;;;;;193.40;184.20;;;27.60;99.90;;;;;;5033792;28;20040;-75
2023/08/09 11:20:19;;;;;;;223.15;212.38;;;27.50;99.90;;;;;;5032988;28;20462;-75
2023/08/09 11:22:53;;;;;;;225.02;214.18;;;26.90;99.90;;;;;;5032555;28;20037;-75
2023/08/09 11:25:19;;;;;;;247.50;235.88;;;26.70;99.90;;;;;;5032030;28;20033;-72
2023/08/09 11:27:45;;;;;;;211.60;201.63;;;26.90;99.90;;;;;;5033533;28;20044;-73
2023/08/09 11:30:12;;;;;;;235.88;224.57;;;27.20;99.90;;;;;;5032892;28;20383;-72
2023/08/09 11:32:39;;;;;;;188.60;179.52;;;27.50;99.90;;;;;;5033424;28;20033;-72
2023/08/09 11:35:05;;;;;;;205.82;195.98;;;27.60;99.90;;;;;;5033102;28;20029;-73
2023/08/09 11:37:31;;;;;;;230.23;219.27;;;27.90;99.90;;;;;;5033137;28;20538;-72
2023/08/09 11:39:57;;;;;;;269.52;256.75;;;27.90;99.90;;;;;;5031586;28;20037;-72
2023/08/09 11:42:23;;;;;;;263.13;250.70;;;27.90;99.90;;;;;;5032721;28;20089;-72
2023/08/09 11:44:49;;;;;;;282.15;268.73;;;27.70;99.90;;;;;;5033167;28;20033;-72
2023/08/09 11:47:15;;;;;;;268.92;256.23;;;27.60;99.90;;;;;;5032644;28;20037;-73
2023/08/09 11:49:43;;;;;;;274.15;261.30;;;27.60;99.90;;;;;;5032604;28;20037;-73
2023/08/09 11:52:13;;;;;;;303.40;288.73;;;27.80;99.90;;;;;;5031376;28;20033;-73
2023/08/09 11:54:39;;;;;;;;;;;28.00;99.90;;;;;;5032173;28;20036;-72
2023/08/09 11:57:07;;;;;;;240.43;229.00;;;28.00;99.90;;;;;;5016636;28;19909;-73
2023/08/09 11:59:33;;;;;;;244.65;232.95;;;28.00;99.90;;;;;;5012099;28;20018;-72
2023/08/09 12:01:59;;;;;;;264.70;252.10;;;27.90;99.90;;;;;;5026748;28;20045;-72
2023/08/09 12:04:26;;;;;;;243.18;231.43;;;28.00;99.90;;;;;;5032644;28;20026;-72
2023/08/09 12:06:54;;;;;;;233.95;222.70;;;28.10;99.90;;;;;;5031323;28;20028;-72
2023/08/09 12:09:34;;;;;;;290.05;276.13;;;28.30;99.90;;;;;;5031689;28;20032;-72
2023/08/09 12:12:04;;;;;;;247.27;235.57;;;28.50;99.90;;;;;;5032663;28;20041;-72
2023/08/09 12:14:30;;;;;;;264.02;251.38;;;28.20;99.90;;;;;;5031420;28;20045;-72
2023/08/09 12:16:57;;;;;;;264.77;252.10;;;28.40;99.90;;;;;;5031982;28;20034;-73
2023/08/09 12:19:23;;;;;;;285.88;272.13;;;28.30;99.90;;;;;;5031151;28;20032;-72